Dunnington, United Kingdom
Current Conditions -  °F | °C
As of 7:50 PM on Thursday 18 Dec 2014 (Local Time) from EGXV Reporting Station
Broken Clouds Broken Clouds  
Wind Chill: 55°   Ceiling: 4300
Heat Index: 55°   Visibility: 6mi
Dew Point: 50°   Wind: 21mph
Humidity: 82%   Direction: 240°WSW
Pressure: 29.53"   Gusts: 33mph
Location:  53.95°N, 0.25°W
Report Text: EGXV 181950Z AUTO 24018G29KT 9999 FEW024/// SCT030/// BKN043/// 13/10 Q1000
Loading
Personal Weather Stations






























Interactive Weather Map New forecast layout! Learn more

10-Day Weather Forecast

Advertisements
Track Severe Weather on mobile